Eagle River, WI

1:53 PM CDT on August 23, 2017 (GMT -0500)
Eagle River Union | | Change Station

Elev 1640 ft 45.93 °N, 89.27 °W | Updated 18 minutes ago

Scattered Clouds
Scattered Clouds
64 °F
Feels Like 64 °F
N
12
Wind Variable Wind from NW
Gusts 21 mph

Today
High -- | Low -- °F
--% Chance of Precip.
Yesterday
High -- | Low -- °F
Precip. -- in
Pressure 30.04 in
Visibility 10.0 miles
Clouds Scattered Clouds 2900 ft
Scattered Clouds 3400 ft
Scattered Clouds 4300 ft
Dew Point 46 °F
Humidity 51%
Rainfall 0.00 in
Snow Depth Not available.
6:07 AM 7:51 PM
Waxing Crescent, 5% visible
METAR KEGV 231835Z AUTO 32010G18KT 10SM SCT029 SCT034 SCT043 18/08 A3004 RMK AO2 T01780075
Pressure 30.04 in
Visibility 10.0 miles
Clouds Scattered Clouds 2900 ft
Scattered Clouds 3400 ft
Scattered Clouds 4300 ft
Dew Point 46 °F
Humidity 51%
Rainfall 0.00 in
Snow Depth Not available.
6:07 AM 7:51 PM
Waxing Crescent, 5% visible
METAR KEGV 231835Z AUTO 32010G18KT 10SM SCT029 SCT034 SCT043 18/08 A3004 RMK AO2 T01780075

Get Severe Weather Alerts

Thanks for signing up!

Be on the lookout for a verification email in your inbox.

You'll start receiving the daily forecast at 6 AM.

×

10-Day Weather Forecast

Almanac

Astronomy

Aug. 23, 2017 Rise Set
Actual Time
Civil Twilight
Nautical Twilight
Astronomical Twilight
Moon
Length of Visible Light
Length of Day
Tomorrow will be .
, % of the Moon is Illuminated

Today's Extremes

State Highs State Lows

Community

WunderPhotos

Category 6

Welcome to Category 6. This is the collective home for Weather Underground's featured writeups by Dr. Jeff Masters (right), Bob Henson (left), Chris Burt, and other regular contributors.

Nearby

Air Quality

  Air Quality AQ Index Pollutant
Not available.

Snow Depth

Station Depth Elevation

Earthquake Activity

City Distance Mag. Time & Date
Minimum magnitude displayed is 2.5.

Coastal Water Temperatures

Place Temperature

Stations

Nearby Weather Stations

Station Location Temp. Windchill Dew Point Humidity Wind Precip. Elev Updated Type
                   

Watches & Warnings

There are currently no watches in effect.